If you wish to contribute or participate in the discussions about articles you are invited to join SKYbrary as a registered user

 Actions

Egilsstaðir Airport

From SKYbrary Wiki

BIEG
Airport
ICAO: BIEG – IATA: EGS
Summary
Name Egilsstaðir Airport
Region Northern Atlantic
Territory Iceland IS.gif
Location , Austurland
Serving Egilsstadir
Elevation 23.165 m
76 ft
76 ft23.165 m
Type medium airport
Coordinates 65° 17' 0.00" N, 14° 24' 5.00" W
Runways
Designator Length Width Surface ROPS
4/22 2000 m6,561.68 ft
45 m147.638 ft
ASP no/no


METAR
Observation BIEG 171700Z 01014KT 9999 -SHRA SCT021 BKN027 BKN044 04/02 Q1012 RMK WIND GAGNHEIDI 04026KT
Station Egilsstadir
Date/Time 17 October 2019 17:00:00
Wind direction 10°
Wind speed 14 kts
Lowest cloud amount scattered clouds
Temperature 4°C
Dew point 2°C
Humidity 86%
QNH 1012 hPa
Weather condition light showers rain